Kota Waris — S6RJ — position and weather

sailwx.info

Track history (hours):
 
Tides and Currents Weather Stations Pressure Air Temp Water Temp Dewpoint Dewpoint Depression Visibility Wind Speed Wind Dir Waves Ship Positions

Kota Waris

Last reported at 2018-Feb-16 15:57 UTC. Time now 2018-Feb-20 23:47 UTC.
Position N 01°15' E 104°01'.

Length 185 m; draft 9.9 m.

Type: Cargo ship. MMSI: 564482000.

Date/timePositionNaut miles runAvg speedWind from/ knotsBaromVisibWave heightAir tempDewpointWater temp
2018-Feb-16 15:57N 01°15' E 104°01'612.0
2018-Feb-16 15:29N 01°13' E 103°55'4 7.7
2018-Feb-16 15:00N 01°14' E 103°52'3 5.4
2018-Feb-16 14:30N 01°16' E 103°50'0 0.6
2018-Feb-16 13:57N 01°16' E 103°50'0 0.0
2018-Feb-16 13:30N 01°16' E 103°50'0 0.0
2018-Feb-16 13:00N 01°16' E 103°50'0 0.0
2018-Feb-16 12:29N 01°16' E 103°50'0 0.0
2018-Feb-16 12:00N 01°16' E 103°50'0 0.0
2018-Feb-16 11:29N 01°16' E 103°50'0 0.0
2018-Feb-16 11:00N 01°16' E 103°50'0 0.0
2018-Feb-16 10:19N 01°16' E 103°50'0 0.2
2018-Feb-16 09:55N 01°16' E 103°50'0 0.1
2018-Feb-16 08:49N 01°16' E 103°50'0 0.0
2018-Feb-16 08:25N 01°16' E 103°50'0 0.0
2018-Feb-16 07:55N 01°16' E 103°50'0 0.0
2018-Feb-16 07:28N 01°16' E 103°50'0 0.0
2018-Feb-16 06:55N 01°16' E 103°50'0 0.0
2018-Feb-16 06:25N 01°16' E 103°50'0 0.0
2018-Feb-16 05:55N 01°16' E 103°50'0 0.0
2018-Feb-16 05:25N 01°16' E 103°50'0 0.0
2018-Feb-16 04:49N 01°16' E 103°50'0 0.0
2018-Feb-16 04:19N 01°16' E 103°50'0 0.0
2018-Feb-16 03:58N 01°16' E 103°50'0 0.0
2018-Feb-16 03:28N 01°16' E 103°50'0 0.0
2018-Feb-16 02:55N 01°16' E 103°50'0 0.0
2018-Feb-16 02:25N 01°16' E 103°50'0 0.0
2018-Feb-16 01:58N 01°16' E 103°50'0 0.0
2018-Feb-16 01:25N 01°16' E 103°50'0 0.0
2018-Feb-16 00:43N 01°16' E 103°50'0 0.0
2018-Feb-16 00:25N 01°16' E 103°50'0 0.0
2018-Feb-15 23:55N 01°16' E 103°50'0 0.0
2018-Feb-15 23:13N 01°16' E 103°50'0 0.0
2018-Feb-15 22:55N 01°16' E 103°50'0 0.0
2018-Feb-15 22:28N 01°16' E 103°50'0 0.0
2018-Feb-15 21:58N 01°16' E 103°50'0 0.0
2018-Feb-15 21:07N 01°16' E 103°50'0 0.0
2018-Feb-15 20:52N 01°16' E 103°50'0 0.0
2018-Feb-15 20:25N 01°16' E 103°50'0 0.0
2018-Feb-15 19:58N 01°16' E 103°50'0 0.0
2018-Feb-15 19:25N 01°16' E 103°50'0 0.0
2018-Feb-15 18:46N 01°16' E 103°50'0 0.0
2018-Feb-15 18:25N 01°16' E 103°50'0 0.0
2018-Feb-15 17:58N 01°16' E 103°50'0 0.0
2018-Feb-15 17:25N 01°16' E 103°50'0 0.0
2018-Feb-15 16:55N 01°16' E 103°50'0 0.0
2018-Feb-15 16:25N 01°16' E 103°50'0 0.1
2018-Feb-15 15:52N 01°16' E 103°50'0 0.2
2018-Feb-15 15:28N 01°16' E 103°50'0 0.0
2018-Feb-15 14:52N 01°16' E 103°50'0 0.0
2018-Feb-15 14:19N 01°16' E 103°50'0 0.0
2018-Feb-15 13:58N 01°16' E 103°50'0 0.0
2018-Feb-15 13:19N 01°16' E 103°50'0 0.0
2018-Feb-15 12:58N 01°16' E 103°50'0 0.0
2018-Feb-15 12:22N 01°16' E 103°50'0 0.0
2018-Feb-15 11:58N 01°16' E 103°50'0 0.0
2018-Feb-15 11:22N 01°16' E 103°50'0 0.0
2018-Feb-15 10:52N 01°16' E 103°50'0 0.0
2018-Feb-15 10:28N 01°16' E 103°50'0 0.0
2018-Feb-15 09:58N 01°16' E 103°50'0 0.0
2018-Feb-15 09:28N 01°16' E 103°50'0 0.8
2018-Feb-15 09:00N 01°16' E 103°50'3 5.2
2018-Feb-15 08:30N 01°14' E 103°52'5 8.3
2018-Feb-15 07:58N 01°15' E 103°57'510.4
2018-Feb-15 07:30N 01°16' E 104°01'  
2018-Feb-09 17:01N 01°13' E 103°52'3 0.1
2018-Feb-08 01:30N 01°16' E 103°50'0 0.0
2018-Feb-08 00:54N 01°16' E 103°50'0 0.0
2018-Feb-08 00:30N 01°16' E 103°50'0 0.0
2018-Feb-08 00:00N 01°16' E 103°50'0 0.0
2018-Feb-07 23:30N 01°16' E 103°50'0 0.0
2018-Feb-07 23:00N 01°16' E 103°50'0 0.0
2018-Feb-07 22:30N 01°16' E 103°50'0 0.0
2018-Feb-07 21:54N 01°16' E 103°50'0 0.0
2018-Feb-07 21:24N 01°16' E 103°50'  
Track history (hours):
 
Tides and Currents Weather Stations Pressure Air Temp Water Temp Dewpoint Dewpoint Depression Visibility Wind Speed Wind Dir Waves Ship Positions

Kota Waris

Last reported at 2018-Feb-16 15:57 UTC. Time now 2018-Feb-20 23:47 UTC.
Position N 01°15' E 104°01'.

Length 185 m; draft 9.9 m.

Type: Cargo ship. MMSI: 564482000.

Date/timePositionNaut miles runAvg speedWind from/ knotsBaromVisibWave heightAir tempDewpointWater temp
2018-Feb-16 15:57N 01°15' E 104°01'612.0
2018-Feb-16 15:29N 01°13' E 103°55'4 7.7
2018-Feb-16 15:00N 01°14' E 103°52'3 5.4
2018-Feb-16 14:30N 01°16' E 103°50'0 0.6
2018-Feb-16 13:57N 01°16' E 103°50'0 0.0
2018-Feb-16 13:30N 01°16' E 103°50'0 0.0
2018-Feb-16 13:00N 01°16' E 103°50'0 0.0
2018-Feb-16 12:29N 01°16' E 103°50'0 0.0
2018-Feb-16 12:00N 01°16' E 103°50'0 0.0
2018-Feb-16 11:29N 01°16' E 103°50'0 0.0
2018-Feb-16 11:00N 01°16' E 103°50'0 0.0
2018-Feb-16 10:19N 01°16' E 103°50'0 0.2
2018-Feb-16 09:55N 01°16' E 103°50'0 0.1
2018-Feb-16 08:49N 01°16' E 103°50'0 0.0
2018-Feb-16 08:25N 01°16' E 103°50'0 0.0
2018-Feb-16 07:55N 01°16' E 103°50'0 0.0
2018-Feb-16 07:28N 01°16' E 103°50'0 0.0
2018-Feb-16 06:55N 01°16' E 103°50'0 0.0
2018-Feb-16 06:25N 01°16' E 103°50'0 0.0
2018-Feb-16 05:55N 01°16' E 103°50'0 0.0
2018-Feb-16 05:25N 01°16' E 103°50'0 0.0
2018-Feb-16 04:49N 01°16' E 103°50'0 0.0
2018-Feb-16 04:19N 01°16' E 103°50'0 0.0
2018-Feb-16 03:58N 01°16' E 103°50'0 0.0
2018-Feb-16 03:28N 01°16' E 103°50'0 0.0
2018-Feb-16 02:55N 01°16' E 103°50'0 0.0
2018-Feb-16 02:25N 01°16' E 103°50'0 0.0
2018-Feb-16 01:58N 01°16' E 103°50'0 0.0
2018-Feb-16 01:25N 01°16' E 103°50'0 0.0
2018-Feb-16 00:43N 01°16' E 103°50'0 0.0
2018-Feb-16 00:25N 01°16' E 103°50'0 0.0
2018-Feb-15 23:55N 01°16' E 103°50'0 0.0
2018-Feb-15 23:13N 01°16' E 103°50'0 0.0
2018-Feb-15 22:55N 01°16' E 103°50'0 0.0
2018-Feb-15 22:28N 01°16' E 103°50'0 0.0
2018-Feb-15 21:58N 01°16' E 103°50'0 0.0
2018-Feb-15 21:07N 01°16' E 103°50'0 0.0
2018-Feb-15 20:52N 01°16' E 103°50'0 0.0
2018-Feb-15 20:25N 01°16' E 103°50'0 0.0
2018-Feb-15 19:58N 01°16' E 103°50'0 0.0
2018-Feb-15 19:25N 01°16' E 103°50'0 0.0
2018-Feb-15 18:46N 01°16' E 103°50'0 0.0
2018-Feb-15 18:25N 01°16' E 103°50'0 0.0
2018-Feb-15 17:58N 01°16' E 103°50'0 0.0
2018-Feb-15 17:25N 01°16' E 103°50'0 0.0
2018-Feb-15 16:55N 01°16' E 103°50'0 0.0
2018-Feb-15 16:25N 01°16' E 103°50'0 0.1
2018-Feb-15 15:52N 01°16' E 103°50'0 0.2
2018-Feb-15 15:28N 01°16' E 103°50'0 0.0
2018-Feb-15 14:52N 01°16' E 103°50'0 0.0
2018-Feb-15 14:19N 01°16' E 103°50'0 0.0
2018-Feb-15 13:58N 01°16' E 103°50'0 0.0
2018-Feb-15 13:19N 01°16' E 103°50'0 0.0
2018-Feb-15 12:58N 01°16' E 103°50'0 0.0
2018-Feb-15 12:22N 01°16' E 103°50'0 0.0
2018-Feb-15 11:58N 01°16' E 103°50'0 0.0
2018-Feb-15 11:22N 01°16' E 103°50'0 0.0
2018-Feb-15 10:52N 01°16' E 103°50'0 0.0
2018-Feb-15 10:28N 01°16' E 103°50'0 0.0
2018-Feb-15 09:58N 01°16' E 103°50'0 0.0
2018-Feb-15 09:28N 01°16' E 103°50'0 0.8
2018-Feb-15 09:00N 01°16' E 103°50'3 5.2
2018-Feb-15 08:30N 01°14' E 103°52'5 8.3
2018-Feb-15 07:58N 01°15' E 103°57'510.4
2018-Feb-15 07:30N 01°16' E 104°01'  
2018-Feb-09 17:01N 01°13' E 103°52'3 0.1
2018-Feb-08 01:30N 01°16' E 103°50'0 0.0
2018-Feb-08 00:54N 01°16' E 103°50'0 0.0
2018-Feb-08 00:30N 01°16' E 103°50'0 0.0
2018-Feb-08 00:00N 01°16' E 103°50'0 0.0
2018-Feb-07 23:30N 01°16' E 103°50'0 0.0
2018-Feb-07 23:00N 01°16' E 103°50'0 0.0
2018-Feb-07 22:30N 01°16' E 103°50'0 0.0
2018-Feb-07 21:54N 01°16' E 103°50'0 0.0
2018-Feb-07 21:24N 01°16' E 103°50'  

Dump ship's entire track history